Time;durP1;ratioP1;P1;durP2;ratioP2;P2;SDS_P1;SDS_P2;PMS_P1;PMS_P2;Temp;Humidity;BMP_temperature;BMP_pressure;BME280_temperature;BME280_humidity;BME280_pressure;Samples;Min_cycle;Max_cycle;Signal;HPM_P1;HPM_P2
2021/07/17 00:00:19;;;;;;;;;;;;;;;17.84;nan;100417.72;5013821;28;20261;-79
2021/07/17 00:02:46;;;;;;;;;;;;;;;17.94;nan;100419.50;4996197;28;19955;-79
2021/07/17 00:05:14;;;;;;;;;;;;;;;17.68;nan;100420.53;5013849;28;20369;-79
2021/07/17 00:07:42;;;;;;;;;;;;;;;17.84;nan;100412.06;5013824;28;19932;-79
2021/07/17 00:10:10;;;;;;;;;;;;;;;17.77;nan;100412.22;5014019;28;19925;-79
2021/07/17 00:12:37;;;;;;;;;;;;;;;17.76;nan;100416.31;5013457;28;19932;-79
2021/07/17 00:15:05;;;;;;;;;;;;;;;17.69;nan;100410.84;5013960;28;20387;-80
2021/07/17 00:17:32;;;;;;;;;;;;;;;17.17;nan;100418.44;5013347;28;19933;-79
2021/07/17 00:19:59;;;;;;;;;;;;;;;17.37;nan;100416.38;4996196;28;19925;-79
2021/07/17 00:22:28;;;;;;;;;;;;;;;17.41;nan;100419.91;5013103;28;20451;-79
2021/07/17 00:24:56;;;;;;;;;;;;;;;17.49;nan;100422.16;5013714;28;19925;-79
2021/07/17 00:27:23;;;;;;;;;;;;;;;17.45;nan;100418.63;5013596;28;20446;-79
2021/07/17 00:29:51;;;;;;;;;;;;;;;17.35;nan;100419.63;5014316;28;19931;-80
2021/07/17 00:32:18;;;;;;;;;;;;;;;17.35;nan;100418.84;5000152;28;19971;-80
2021/07/17 00:34:45;;;;;;;;;;;;;;;17.12;nan;100433.03;5017588;28;19925;-79
2021/07/17 00:37:12;;;;;;;;;;;;;;;16.99;nan;100434.94;5000193;28;19975;-79
2021/07/17 00:39:39;;;;;;;;;;;;;;;17.02;nan;100442.53;5017570;28;19926;-79
2021/07/17 00:42:07;;;;;;;;;;;;;;;17.11;nan;100445.59;5017287;28;19936;-79
2021/07/17 00:44:34;;;;;;;;;;;;;;;17.07;nan;100437.19;5017252;28;20357;-79
2021/07/17 00:47:02;;;;;;;;;;;;;;;16.89;nan;100430.31;5017464;28;19925;-79
2021/07/17 00:49:32;;;;;;;;;;;;;;;16.92;nan;100433.03;5017421;28;20339;-80
2021/07/17 00:51:59;;;;;;;;;;;;;;;16.94;nan;100443.91;4999894;28;19925;-79
2021/07/17 00:54:27;;;;;;;;;;;;;;;16.96;nan;100441.47;5000228;28;19932;-80
2021/07/17 00:56:54;;;;;;;;;;;;;;;16.98;nan;100439.00;5017038;28;19940;-80
2021/07/17 00:59:23;;;;;;;;;;;;;;;16.89;nan;100433.91;5017192;28;19953;-80
2021/07/17 01:02:05;;;;;;;;;;;;;;;16.72;nan;100432.22;5017160;28;19955;-80
2021/07/17 01:04:35;;;;;;;;;;;;;;;16.43;nan;100430.34;5000071;28;19956;-80
2021/07/17 01:07:03;;;;;;;;;;;;;;;16.51;nan;100431.84;4999451;28;20408;-79
2021/07/17 01:09:30;;;;;;;;;;;;;;;16.60;nan;100434.91;5017016;28;19929;-80
2021/07/17 01:11:57;;;;;;;;;;;;;;;16.55;nan;100438.22;4999585;28;19932;-80
2021/07/17 01:14:25;;;;;;;;;;;;;;;16.18;nan;100430.78;5016812;28;19956;-80
2021/07/17 01:16:53;;;;;;;;;;;;;;;16.41;nan;100432.78;5016835;28;19935;-80
2021/07/17 01:19:24;;;;;;;;;;;;;;;16.44;nan;100420.69;5016807;28;19932;-79
2021/07/17 01:21:56;;;;;;;;;;;;;;;16.44;nan;100423.50;5016791;28;19926;-80
2021/07/17 01:24:24;;;;;;;;;;;;;;;16.52;nan;100427.78;5016512;28;19925;-80
2021/07/17 01:26:52;;;;;;;;;;;;;;;16.30;nan;100429.38;4999503;28;19933;-80
2021/07/17 01:29:20;;;;;;;;;;;;;;;16.31;nan;100422.50;5016684;28;19932;-80
2021/07/17 01:31:48;;;;;;;;;;;;;;;16.44;nan;100431.97;5016543;28;19925;-80
2021/07/17 01:34:18;;;;;;;;;;;;;;;16.25;nan;100422.22;5016788;28;19932;-80
2021/07/17 01:37:02;;;;;;;;;;;;;;;16.11;nan;100422.44;5016667;28;19936;-80
2021/07/17 01:39:32;;;;;;;;;;;;;;;16.25;nan;100427.84;5016476;28;20272;-79
2021/07/17 01:41:59;;;;;;;;;;;;;;;15.91;nan;100427.22;5016083;28;20578;-79
2021/07/17 01:44:26;;;;;;;;;;;;;;;16.10;nan;100432.91;5016328;28;19926;-79
2021/07/17 01:46:54;;;;;;;;;;;;;;;16.20;nan;100433.97;5016164;28;19930;-79
2021/07/17 01:49:21;;;;;;;;;;;;;;;16.31;nan;100423.31;4998935;28;19932;-79
2021/07/17 01:51:49;;;;;;;;;;;;;;;16.08;nan;100415.63;4998525;28;19934;-79
2021/07/17 01:54:16;;;;;;;;;;;;;;;16.27;nan;100426.19;4998712;28;19929;-79
2021/07/17 01:56:43;;;;;;;;;;;;;;;16.49;nan;100423.81;5016113;28;19929;-79
2021/07/17 01:59:10;;;;;;;;;;;;;;;16.57;nan;100424.50;5015984;28;19932;-79
2021/07/17 02:01:38;;;;;;;;;;;;;;;16.53;nan;100423.72;5015934;28;20258;-79
2021/07/17 02:04:05;;;;;;;;;;;;;;;16.59;nan;100427.66;5015940;28;20424;-79
2021/07/17 02:06:32;;;;;;;;;;;;;;;16.50;nan;100430.25;5015965;28;19929;-79
2021/07/17 02:08:59;;;;;;;;;;;;;;;16.48;nan;100427.84;5015502;28;19925;-79
2021/07/17 02:11:26;;;;;;;;;;;;;;;16.51;nan;100427.00;5016015;28;19925;-79
2021/07/17 02:13:54;;;;;;;;;;;;;;;16.52;nan;100427.78;5015670;28;19925;-79
2021/07/17 02:16:22;;;;;;;;;;;;;;;16.66;nan;100430.38;5015993;28;19925;-80
2021/07/17 02:18:50;;;;;;;;;;;;;;;16.59;nan;100425.63;5015854;28;19929;-79
2021/07/17 02:21:18;;;;;;;;;;;;;;;16.72;nan;100425.81;5015504;28;19925;-79
2021/07/17 02:23:45;;;;;;;;;;;;;;;16.17;nan;100424.38;5015600;28;19979;-79
2021/07/17 02:26:12;;;;;;;;;;;;;;;15.78;nan;100417.75;5015449;28;19983;-79
2021/07/17 02:28:40;;;;;;;;;;;;;;;16.10;nan;100423.66;5015387;28;19929;-79
2021/07/17 02:31:08;;;;;;;;;;;;;;;16.07;nan;100422.50;4998214;28;19925;-79
2021/07/17 02:33:35;;;;;;;;;;;;;;;16.19;nan;100427.53;4997936;28;19930;-79
2021/07/17 02:36:03;;;;;;;;;;;;;;;16.27;nan;100429.00;5014108;28;19935;-79
2021/07/17 02:38:31;;;;;;;;;;;;;;;16.38;nan;100423.19;4997614;28;19925;-79
2021/07/17 02:40:59;;;;;;;;;;;;;;;16.05;nan;100422.13;5015358;28;19932;-79
2021/07/17 02:43:26;;;;;;;;;;;;;;;15.70;nan;100419.91;5015549;28;19929;-79
2021/07/17 02:45:53;;;;;;;;;;;;;;;15.75;nan;100430.66;5015207;28;19929;-79
2021/07/17 02:48:21;;;;;;;;;;;;;;;15.69;nan;100428.78;4998144;28;19975;-79
2021/07/17 02:50:48;;;;;;;;;;;;;;;16.02;nan;100434.25;4997610;28;19930;-79
2021/07/17 02:53:15;;;;;;;;;;;;;;;16.17;nan;100432.00;5014196;28;19930;-79
2021/07/17 02:55:43;;;;;;;;;;;;;;;16.25;nan;100431.44;5014956;28;19930;-79
2021/07/17 02:58:10;;;;;;;;;;;;;;;16.24;nan;100435.50;5014998;28;19984;-79
2021/07/17 03:00:38;;;;;;;;;;;;;;;15.69;nan;100431.59;5015149;28;19925;-79
2021/07/17 03:03:11;;;;;;;;;;;;;;;15.61;nan;100430.91;4997346;28;19925;-79
2021/07/17 03:05:38;;;;;;;;;;;;;;;15.82;nan;100436.22;4997648;28;19931;-79
2021/07/17 03:08:06;;;;;;;;;;;;;;;15.61;nan;100430.91;4997136;28;19925;-79
2021/07/17 03:10:33;;;;;;;;;;;;;;;15.88;nan;100428.88;5014907;28;19925;-79
2021/07/17 03:13:01;;;;;;;;;;;;;;;15.84;nan;100432.97;4997547;28;19926;-79
2021/07/17 03:15:28;;;;;;;;;;;;;;;15.96;nan;100430.34;5014639;28;20048;-79
2021/07/17 03:17:56;;;;;;;;;;;;;;;16.11;nan;100428.09;5014824;28;19926;-79
2021/07/17 03:20:23;;;;;;;;;;;;;;;16.19;nan;100427.53;5014389;28;19930;-79
2021/07/17 03:22:51;;;;;;;;;;;;;;;16.33;nan;100428.53;5014539;28;20376;-79
2021/07/17 03:25:18;;;;;;;;;;;;;;;16.27;nan;100420.56;4997316;28;19976;-79
2021/07/17 03:27:45;;;;;;;;;;;;;;;15.63;nan;100416.38;4995809;28;19925;-79
2021/07/17 03:30:13;;;;;;;;;;;;;;;15.87;nan;100413.16;4997024;28;20332;-79
2021/07/17 03:32:40;;;;;;;;;;;;;;;15.55;nan;100428.97;5014603;28;19948;-79
2021/07/17 03:35:08;;;;;;;;;;;;;;;15.79;nan;100425.78;5014408;28;19931;-80
2021/07/17 03:37:36;;;;;;;;;;;;;;;15.87;nan;100418.81;4996941;28;19929;-79
2021/07/17 03:40:04;;;;;;;;;;;;;;;15.86;nan;100414.41;4996851;28;19929;-80
2021/07/17 03:42:32;;;;;;;;;;;;;;;15.89;nan;100412.72;5014119;28;19943;-79
2021/07/17 03:45:00;;;;;;;;;;;;;;;15.57;nan;100413.22;5014489;28;20353;-79
2021/07/17 03:47:27;;;;;;;;;;;;;;;15.79;nan;100413.72;4996712;28;20308;-79
2021/07/17 03:49:54;;;;;;;;;;;;;;;15.83;nan;100420.06;5014161;28;19926;-79
2021/07/17 03:52:22;;;;;;;;;;;;;;;15.92;nan;100423.97;5014309;28;19925;-79
2021/07/17 03:54:49;;;;;;;;;;;;;;;15.91;nan;100416.75;5014019;28;19936;-79
2021/07/17 03:57:16;;;;;;;;;;;;;;;15.57;nan;100413.22;5014089;28;19971;-79
2021/07/17 03:59:44;;;;;;;;;;;;;;;15.18;nan;100412.97;5014099;28;19925;-79
2021/07/17 04:02:11;;;;;;;;;;;;;;;15.25;nan;100415.66;5014015;28;19926;-79
2021/07/17 04:04:41;;;;;;;;;;;;;;;15.49;nan;100417.41;4995903;28;20364;-79
2021/07/17 04:07:08;;;;;;;;;;;;;;;15.24;nan;100410.47;4996280;28;19926;-79
2021/07/17 04:09:35;;;;;;;;;;;;;;;15.18;nan;100412.97;5013983;28;20316;-79
2021/07/17 04:12:03;;;;;;;;;;;;;;;14.90;nan;100413.34;5014210;28;19952;-79
2021/07/17 04:14:30;;;;;;;;;;;;;;;14.53;nan;100416.16;5014025;28;19933;-79
2021/07/17 04:16:57;;;;;;;;;;;;;;;14.91;nan;100420.53;4996487;28;19971;-79
2021/07/17 04:19:24;;;;;;;;;;;;;;;15.14;nan;100414.22;5013665;28;19929;-79
2021/07/17 04:21:51;;;;;;;;;;;;;;;15.23;nan;100415.31;5013660;28;19925;-79
2021/07/17 04:24:19;;;;;;;;;;;;;;;15.27;nan;100410.41;5013916;28;19932;-79
2021/07/17 04:26:46;;;;;;;;;;;;;;;15.04;nan;100412.34;4996170;28;19934;-79
2021/07/17 04:29:13;;;;;;;;;;;;;;;15.08;nan;100413.91;4996341;28;20397;-79
2021/07/17 04:31:40;;;;;;;;;;;;;;;15.35;nan;100417.56;4995826;28;19979;-79
2021/07/17 04:34:08;;;;;;;;;;;;;;;15.42;nan;100411.06;5013569;28;19979;-80
2021/07/17 04:36:35;;;;;;;;;;;;;;;15.39;nan;100412.69;5013887;28;19925;-79
2021/07/17 04:39:03;;;;;;;;;;;;;;;15.43;nan;100415.47;4996554;28;19933;-79
2021/07/17 04:41:30;;;;;;;;;;;;;;;15.08;nan;100413.91;5013450;28;20404;-79
2021/07/17 04:43:57;;;;;;;;;;;;;;;14.61;nan;100406.44;5013495;28;19932;-79
2021/07/17 04:46:24;;;;;;;;;;;;;;;14.93;nan;100420.94;5013644;28;19929;-79
2021/07/17 04:48:52;;;;;;;;;;;;;;;15.20;nan;100430.25;5013896;28;19979;-79
2021/07/17 04:51:20;;;;;;;;;;;;;;;15.39;nan;100435.22;5012524;28;19925;-79
2021/07/17 04:53:47;;;;;;;;;;;;;;;15.56;nan;100433.38;5012715;28;19975;-79
2021/07/17 04:56:14;;;;;;;;;;;;;;;15.69;nan;100415.47;4995458;28;19998;-79
2021/07/17 04:58:42;;;;;;;;;;;;;;;15.73;nan;100427.50;4995514;28;19932;-80
2021/07/17 05:01:09;;;;;;;;;;;;;;;15.83;nan;100431.34;5012722;28;20036;-80
2021/07/17 05:03:36;;;;;;;;;;;;;;;15.95;nan;100428.75;5012658;28;19933;-79
2021/07/17 05:06:04;;;;;;;;;;;;;;;16.04;nan;100429.00;5012602;28;20373;-80
2021/07/17 05:08:33;;;;;;;;;;;;;;;16.08;nan;100415.63;4995448;28;19925;-79
2021/07/17 05:11:00;;;;;;;;;;;;;;;16.05;nan;100422.13;5013598;28;19925;-80
2021/07/17 05:13:27;;;;;;;;;;;;;;;15.73;nan;100418.22;5013738;28;19948;-80
2021/07/17 05:15:54;;;;;;;;;;;;;;;15.37;nan;100429.22;5013825;28;19926;-80
2021/07/17 05:18:23;;;;;;;;;;;;;;;15.68;nan;100427.16;5016975;28;19926;-80
2021/07/17 05:20:50;;;;;;;;;;;;;;;15.91;nan;100427.22;4999432;28;20320;-80
2021/07/17 05:23:17;;;;;;;;;;;;;;;16.16;nan;100428.38;5016778;28;19995;-80
2021/07/17 05:25:46;;;;;;;;;;;;;;;16.28;nan;100427.78;4999420;28;19925;-80
2021/07/17 05:28:13;;;;;;;;;;;;;;;16.01;nan;100421.41;4999298;28;19929;-80
2021/07/17 05:30:40;;;;;;;;;;;;;;;16.21;nan;100425.09;5016888;28;19925;-80
2021/07/17 05:33:09;;;;;;;;;;;;;;;16.46;nan;100423.88;5016573;28;19932;-80
2021/07/17 05:35:37;;;;;;;;;;;;;;;16.64;nan;100419.50;4999204;28;19925;-80
2021/07/17 05:38:10;;;;;;;;;;;;;;;16.82;nan;100419.94;5016678;28;20360;-80
2021/07/17 05:41:02;;;;;;;;;;;;;;;16.94;nan;100426.97;5016253;28;19956;-80
2021/07/17 05:43:37;;;;;;;;;;;;;;;17.09;nan;100423.44;4999204;28;19940;-80
2021/07/17 05:46:05;;;;;;;;;;;;;;;17.23;nan;100416.69;5016211;28;19931;-80
2021/07/17 05:48:32;;;;;;;;;;;;;;;17.38;nan;100417.97;5016618;28;19926;-80
2021/07/17 05:51:00;;;;;;;;;;;;;;;17.85;nan;100419.31;4998741;28;19930;-80
2021/07/17 05:53:27;;;;;;;;;;;;;;;18.87;nan;100419.50;5016423;28;19932;-80
2021/07/17 05:55:54;;;;;;;;;;;;;;;19.58;nan;100410.50;4998773;28;20335;-80
2021/07/17 05:58:21;;;;;;;;;;;;;;;19.57;nan;100404.03;4999024;28;19929;-80
2021/07/17 06:00:49;;;;;;;;;;;;;;;19.59;nan;100407.22;5016066;28;20269;-80
2021/07/17 06:03:16;;;;;;;;;;;;;;;19.53;nan;100397.69;5016019;28;20288;-80
2021/07/17 06:05:43;;;;;;;;;;;;;;;19.46;nan;100397.13;4982539;28;20319;-80
2021/07/17 06:08:10;;;;;;;;;;;;;;;19.39;nan;100395.28;5015956;28;19971;-80
2021/07/17 06:10:37;;;;;;;;;;;;;;;19.28;nan;100394.03;5015923;28;19930;-80
2021/07/17 06:13:05;;;;;;;;;;;;;;;19.16;nan;100401.22;5015901;28;19930;-80
2021/07/17 06:15:32;;;;;;;;;;;;;;;19.13;nan;100396.44;4998169;28;19925;-80
2021/07/17 06:17:59;;;;;;;;;;;;;;;19.30;nan;100400.03;5015557;28;20308;-80
2021/07/17 06:20:26;;;;;;;;;;;;;;;19.34;nan;100404.34;4982546;28;19925;-80
2021/07/17 06:22:53;;;;;;;;;;;;;;;19.43;nan;100404.47;4998362;28;19936;-80
2021/07/17 06:25:21;;;;;;;;;;;;;;;19.47;nan;100402.34;5015678;28;19979;-80
2021/07/17 06:27:48;;;;;;;;;;;;;;;19.52;nan;100407.41;4997048;28;19930;-80
2021/07/17 06:30:15;;;;;;;;;;;;;;;19.50;nan;100415.59;5015401;28;19981;-81
2021/07/17 06:32:43;;;;;;;;;;;;;;;19.63;nan;100412.75;4998126;28;19930;-80
2021/07/17 06:35:10;;;;;;;;;;;;;;;19.70;nan;100421.06;4998018;28;19932;-80
2021/07/17 06:37:40;;;;;;;;;;;;;;;19.88;nan;100424.13;4970717;28;20310;-81
2021/07/17 06:40:09;;;;;;;;;;;;;;;19.80;nan;100425.59;5015494;28;19975;-79
2021/07/17 06:42:41;;;;;;;;;;;;;;;20.01;nan;100427.72;4994136;28;19929;-81
2021/07/17 06:45:09;;;;;;;;;;;;;;;20.07;nan;100430.81;5014817;28;19929;-81
2021/07/17 06:47:36;;;;;;;;;;;;;;;20.33;nan;100421.00;4994666;28;19926;-80
2021/07/17 06:50:04;;;;;;;;;;;;;;;20.51;nan;100427.66;4994964;28;19975;-80
2021/07/17 06:52:31;;;;;;;;;;;;;;;20.76;nan;100426.81;4979432;28;19975;-80
2021/07/17 06:54:59;;;;;;;;;;;;;;;21.18;nan;100419.56;4997385;28;19936;-80
2021/07/17 06:57:26;;;;;;;;;;;;;;;22.36;nan;100404.63;5014588;28;19925;-80
2021/07/17 06:59:53;;;;;;;;;;;;;;;24.06;nan;100401.25;5014732;28;20293;-80
2021/07/17 07:02:20;;;;;;;;;;;;;;;25.67;nan;100383.22;4997063;28;19936;-81
2021/07/17 07:04:47;;;;;;;;;;;;;;;26.06;nan;100371.13;5014736;28;19930;-81
2021/07/17 07:07:15;;;;;;;;;;;;;;;27.26;nan;100366.66;5014826;28;19929;-81
2021/07/17 07:09:42;;;;;;;;;;;;;;;28.91;nan;100355.47;4991434;28;19950;-81
2021/07/17 07:12:09;;;;;;;;;;;;;;;30.54;nan;100363.03;5014324;28;19925;-81
2021/07/17 07:14:36;;;;;;;;;;;;;;;31.79;nan;100348.38;5014243;28;20270;-81
2021/07/17 07:17:03;;;;;;;;;;;;;;;32.64;nan;100350.63;5014326;28;19925;-81
2021/07/17 07:19:31;;;;;;;;;;;;;;;33.19;nan;100349.09;5014264;28;20368;-81
2021/07/17 07:21:58;;;;;;;;;;;;;;;33.55;nan;100350.38;5014277;28;20384;-81
2021/07/17 07:24:26;;;;;;;;;;;;;;;34.45;nan;100346.09;5014239;28;19956;-82
2021/07/17 07:26:53;;;;;;;;;;;;;;;35.15;nan;100353.81;5014056;28;19936;-82
2021/07/17 07:29:20;;;;;;;;;;;;;;;35.81;nan;100345.59;5014371;28;19971;-81
2021/07/17 07:31:48;;;;;;;;;;;;;;;35.96;nan;100343.63;4990898;28;19932;-81
2021/07/17 07:34:15;;;;;;;;;;;;;;;36.33;nan;100344.50;5014034;28;19929;-81
2021/07/17 07:36:42;;;;;;;;;;;;;;;36.64;nan;100346.25;5013949;28;20001;-79
2021/07/17 07:39:09;;;;;;;;;;;;;;;35.99;nan;100351.22;4993976;28;19929;-81
2021/07/17 07:41:37;;;;;;;;;;;;;;;36.20;nan;100343.22;4994075;28;19926;-80
2021/07/17 07:44:05;;;;;;;;;;;;;;;36.19;nan;100335.84;5012681;28;19936;-80
2021/07/17 07:46:34;;;;;;;;;;;;;;;36.52;nan;100339.19;5013955;28;19931;-80
2021/07/17 07:49:03;;;;;;;;;;;;;;;37.07;nan;100340.44;5013339;28;19936;-80
2021/07/17 07:51:31;;;;;;;;;;;;;;;37.55;nan;100342.34;4996238;28;19925;-80
2021/07/17 07:53:58;;;;;;;;;;;;;;;37.67;nan;100332.63;5013658;28;19925;-80
2021/07/17 07:56:26;;;;;;;;;;;;;;;37.82;nan;100343.56;4979795;28;20376;-80
2021/07/17 07:58:53;;;;;;;;;;;;;;;37.78;nan;100343.13;5013536;28;19931;-80
2021/07/17 08:01:21;;;;;;;;;;;;;;;36.88;nan;100334.94;5013379;28;19925;-80
2021/07/17 08:03:48;;;;;;;;;;;;;;;36.99;nan;100336.72;4980010;28;19932;-80
2021/07/17 08:06:16;;;;;;;;;;;;;;;36.22;nan;100342.66;4995935;28;19943;-80
2021/07/17 08:08:43;;;;;;;;;;;;;;;35.38;nan;100342.47;5013470;28;20397;-79
2021/07/17 08:11:10;;;;;;;;;;;;;;;36.35;nan;100347.63;5012942;28;19932;-79
2021/07/17 08:13:38;;;;;;;;;;;;;;;36.92;nan;100337.47;5011044;28;19929;-79
2021/07/17 08:16:05;;;;;;;;;;;;;;;37.53;nan;100328.34;5012896;28;19936;-79
2021/07/17 08:18:32;;;;;;;;;;;;;;;37.45;nan;100333.38;5012434;28;20395;-79
2021/07/17 08:21:25;;;;;;;;;;;;;;;37.92;nan;100335.75;4995581;28;19925;-79
2021/07/17 08:23:53;;;;;;;;;;;;;;;32.10;nan;100352.78;4983990;28;19932;-79
2021/07/17 08:26:21;;;;;;;;;;;;;;;32.53;nan;100354.44;5013177;28;19926;-78
2021/07/17 08:28:50;;;;;;;;;;;;;;;34.21;nan;100346.31;5002502;28;19937;-78
2021/07/17 08:31:17;;;;;;;;;;;;;;;34.04;nan;100348.72;5013230;28;19932;-78
2021/07/17 08:33:48;;;;;;;;;;;;;;;31.87;nan;100357.25;5013265;28;19948;-79
2021/07/17 08:36:17;;;;;;;;;;;;;;;31.92;nan;100354.31;4995976;28;20412;-79
2021/07/17 08:38:44;;;;;;;;;;;;;;;32.20;nan;100351.88;4995884;28;19929;-79
2021/07/17 08:41:12;;;;;;;;;;;;;;;31.14;nan;100359.84;5012668;28;19925;-79
2021/07/17 08:43:39;;;;;;;;;;;;;;;31.97;nan;100361.34;4995049;28;19940;-79
2021/07/17 08:46:06;;;;;;;;;;;;;;;32.62;nan;100356.97;4995258;28;20299;-79
2021/07/17 08:48:34;;;;;;;;;;;;;;;32.55;nan;100353.91;4994504;28;19926;-80
2021/07/17 08:51:02;;;;;;;;;;;;;;;32.06;nan;100358.91;5013262;28;19936;-78
2021/07/17 08:53:30;;;;;;;;;;;;;;;33.08;nan;100350.81;5016898;28;19952;-78
2021/07/17 08:55:58;;;;;;;;;;;;;;;33.21;nan;100349.31;5016419;28;19933;-78
2021/07/17 08:58:26;;;;;;;;;;;;;;;34.11;nan;100348.09;4983349;28;19930;-78
2021/07/17 09:00:53;;;;;;;;;;;;;;;33.71;nan;100335.59;5014801;28;20258;-79
2021/07/17 09:03:20;;;;;;;;;;;;;;;33.05;nan;100343.22;5016358;28;19944;-79
2021/07/17 09:05:49;;;;;;;;;;;;;;;33.86;nan;100337.97;5016419;28;19932;-79
2021/07/17 09:08:17;;;;;;;;;;;;;;;31.99;nan;100345.03;5016373;28;20261;-79
2021/07/17 09:10:44;;;;;;;;;;;;;;;30.71;nan;100349.34;5015415;28;19965;-79
2021/07/17 09:13:13;;;;;;;;;;;;;;;31.97;nan;100349.78;5014465;28;19931;-79
2021/07/17 09:15:42;;;;;;;;;;;;;;;32.11;nan;100334.13;5009687;28;19963;-79
2021/07/17 09:18:09;;;;;;;;;;;;;;;32.56;nan;100338.88;5016217;28;19925;-79
2021/07/17 09:20:39;;;;;;;;;;;;;;;32.43;nan;100346.69;5016324;28;19925;-79
2021/07/17 09:23:09;;;;;;;;;;;;;;;33.34;nan;100332.78;5015718;28;19933;-79
2021/07/17 09:25:40;;;;;;;;;;;;;;;32.84;nan;100313.25;4998908;28;19933;-79
2021/07/17 09:28:14;;;;;;;;;;;;;;;32.08;nan;100315.00;5015931;28;19925;-79
2021/07/17 09:30:42;;;;;;;;;;;;;;;32.19;nan;100340.88;5016386;28;19926;-79
2021/07/17 09:33:11;;;;;;;;;;;;;;;32.71;nan;100338.41;5016244;28;19925;-79
2021/07/17 09:35:39;;;;;;;;;;;;;;;32.84;nan;100333.50;5003842;28;19979;-79
2021/07/17 09:38:07;;;;;;;;;;;;;;;33.24;nan;100322.13;5015741;28;19944;-79
2021/07/17 09:40:46;;;;;;;;;;;;;;;32.44;nan;100328.78;5016018;28;19967;-78
2021/07/17 09:43:32;;;;;;;;;;;;;;;32.06;nan;100332.88;5015890;28;19930;-78
2021/07/17 09:46:00;;;;;;;;;;;;;;;31.78;nan;100335.22;5015932;28;20407;-78
2021/07/17 09:48:31;;;;;;;;;;;;;;;31.25;nan;100324.34;4998133;28;19926;-79
2021/07/17 09:50:59;;;;;;;;;;;;;;;30.92;nan;100327.47;5015805;28;19929;-79
2021/07/17 09:53:38;;;;;;;;;;;;;;;30.60;nan;100332.06;5013504;28;19979;-78
2021/07/17 09:56:10;;;;;;;;;;;;;;;29.55;nan;100333.06;4997293;28;19933;-79
2021/07/17 09:58:38;;;;;;;;;;;;;;;29.33;nan;100329.41;5014076;28;19925;-78
2021/07/17 10:01:11;;;;;;;;;;;;;;;30.01;nan;100325.94;5014538;28;19926;-80
2021/07/17 10:03:39;;;;;;;;;;;;;;;29.75;nan;100321.28;4977678;28;19925;-78
2021/07/17 10:06:08;;;;;;;;;;;;;;;30.08;nan;100319.66;4979732;28;19932;-79
2021/07/17 10:08:35;;;;;;;;;;;;;;;30.10;nan;100317.81;4998025;28;20332;-77
2021/07/17 10:11:11;;;;;;;;;;;;;;;29.59;nan;100322.09;5015680;28;19931;-78
2021/07/17 10:13:39;;;;;;;;;;;;;;;28.97;nan;100308.16;5002616;28;19975;-77
2021/07/17 10:16:35;;;;;;;;;;;;;;;29.17;nan;100316.56;5015399;28;19929;-77
2021/07/17 10:19:04;;;;;;;;;;;;;;;29.26;nan;100312.66;4990096;28;19925;-78
2021/07/17 10:21:35;;;;;;;;;;;;;;;29.48;nan;100313.44;5015212;28;20504;-78
2021/07/17 10:24:02;;;;;;;;;;;;;;;29.41;nan;100313.97;5015585;28;19925;-78
2021/07/17 10:26:30;;;;;;;;;;;;;;;29.27;nan;100308.47;5015047;28;19926;-79
2021/07/17 10:29:03;;;;;;;;;;;;;;;29.48;nan;100313.44;5015241;28;19979;-78
2021/07/17 10:31:30;;;;;;;;;;;;;;;28.99;nan;100310.50;5015174;28;19931;-78
2021/07/17 10:33:58;;;;;;;;;;;;;;;28.84;nan;100310.72;5015055;28;20327;-78
2021/07/17 10:36:25;;;;;;;;;;;;;;;29.17;nan;100319.44;4988984;28;19925;-78
2021/07/17 10:38:56;;;;;;;;;;;;;;;28.82;nan;100293.22;5013755;28;19931;-78
2021/07/17 10:41:24;;;;;;;;;;;;;;;28.93;nan;100306.84;5014973;28;19971;-78
2021/07/17 10:43:53;;;;;;;;;;;;;;;29.38;nan;100302.72;5015038;28;19926;-78
2021/07/17 10:46:29;;;;;;;;;;;;;;;28.47;nan;100303.56;5014454;28;19925;-78
2021/07/17 10:48:58;;;;;;;;;;;;;;;29.03;nan;100297.44;4997155;28;19937;-79
2021/07/17 10:51:26;;;;;;;;;;;;;;;28.72;nan;100297.63;5014176;28;19926;-78
2021/07/17 10:53:54;;;;;;;;;;;;;;;29.40;nan;100300.88;5025238;28;19979;-77
2021/07/17 10:56:27;;;;;;;;;;;;;;;29.86;nan;100303.22;5015238;28;21137;-77
2021/07/17 10:58:55;;;;;;;;;;;;;;;29.75;nan;100304.00;5012664;28;19955;-77
2021/07/17 11:01:22;;;;;;;;;;;;;;;29.69;nan;100300.34;5005453;28;19932;-77
2021/07/17 11:07:16;;;;;;;;;;;;;;;28.90;nan;100316.50;5022233;28;19929;-79
2021/07/17 11:09:56;;;;;;;;;;;;;;;28.64;nan;100316.69;5016584;28;19929;-78
2021/07/17 11:12:28;;;;;;;;;;;;;;;28.67;nan;100312.78;5016884;28;19979;-78
2021/07/17 11:15:19;;;;;;;;;;;;;;;28.79;nan;100317.25;4977209;28;19925;-78
2021/07/17 11:17:47;;;;;;;;;;;;;;;29.01;nan;100320.19;4999713;28;19936;-81
2021/07/17 11:20:31;;;;;;;;;;;;;;;28.54;nan;100303.84;4999618;28;20288;-78
2021/07/17 11:23:01;;;;;;;;;;;;;;;28.95;nan;100313.63;5009672;28;19929;-77
2021/07/17 11:25:29;;;;;;;;;;;;;;;29.28;nan;100315.78;5023815;28;19934;-77
2021/07/17 11:27:57;;;;;;;;;;;;;;;29.14;nan;100297.44;4996740;28;19929;-77
2021/07/17 11:30:25;;;;;;;;;;;;;;;28.84;nan;100302.09;4989947;28;19925;-77
2021/07/17 11:33:04;;;;;;;;;;;;;;;29.03;nan;100300.31;5011088;28;19932;-77
2021/07/17 11:35:33;;;;;;;;;;;;;;;29.25;nan;100300.34;5011360;28;19926;-78
2021/07/17 11:38:00;;;;;;;;;;;;;;;29.10;nan;100305.56;4992401;28;19967;-77
2021/07/17 11:40:27;;;;;;;;;;;;;;;28.90;nan;100290.63;5001480;28;19967;-77
2021/07/17 11:43:05;;;;;;;;;;;;;;;29.07;nan;100294.31;5012295;28;20570;-78
2021/07/17 11:45:33;;;;;;;;;;;;;;;29.25;nan;100288.84;4991290;28;19926;-78
2021/07/17 11:48:06;;;;;;;;;;;;;;;29.17;nan;100292.75;5016853;28;20303;-78
2021/07/17 11:50:34;;;;;;;;;;;;;;;29.49;nan;100280.44;5012875;28;19929;-78
2021/07/17 11:53:10;;;;;;;;;;;;;;;29.00;nan;100286.97;5009413;28;19929;-78
2021/07/17 11:55:38;;;;;;;;;;;;;;;28.89;nan;100284.06;4992877;28;19982;-77
2021/07/17 11:58:15;;;;;;;;;;;;;;;29.04;nan;100292.44;4990507;28;19932;-78
2021/07/17 12:00:44;;;;;;;;;;;;;;;29.21;nan;100291.19;5009536;28;20431;-78
2021/07/17 12:03:11;;;;;;;;;;;;;;;29.49;nan;100280.44;4992380;28;20658;-78
2021/07/17 12:05:38;;;;;;;;;;;;;;;29.41;nan;100270.78;5010378;28;19932;-78
2021/07/17 12:08:06;;;;;;;;;;;;;;;28.91;nan;100275.72;5009409;28;19943;-77
2021/07/17 12:10:35;;;;;;;;;;;;;;;29.18;nan;100277.84;4991357;28;19925;-77
2021/07/17 12:13:03;;;;;;;;;;;;;;;29.36;nan;100276.53;5009716;28;19929;-76
2021/07/17 12:15:33;;;;;;;;;;;;;;;29.38;nan;100268.16;5009358;28;19930;-76
2021/07/17 12:20:58;;;;;;;;;;;;;;;29.80;nan;100279.38;4962585;28;20329;-77
2021/07/17 12:23:26;;;;;;;;;;;;;;;29.95;nan;100276.19;5007454;28;20369;-77
2021/07/17 12:25:55;;;;;;;;;;;;;;;29.77;nan;100278.34;5007990;28;19929;-77
2021/07/17 12:28:28;;;;;;;;;;;;;;;29.66;nan;100278.38;5006913;28;19933;-77
2021/07/17 12:30:57;;;;;;;;;;;;;;;29.48;nan;100273.13;5009213;28;20585;-77
2021/07/17 12:33:27;;;;;;;;;;;;;;;29.98;nan;100269.38;5008224;28;19938;-77
2021/07/17 12:36:01;;;;;;;;;;;;;;;30.16;nan;100274.59;5009998;28;19929;-78
2021/07/17 12:38:29;;;;;;;;;;;;;;;29.94;nan;100268.88;5010955;28;19929;-77
2021/07/17 12:41:02;;;;;;;;;;;;;;;29.31;nan;100257.94;5012608;28;19937;-77
2021/07/17 12:43:32;;;;;;;;;;;;;;;29.69;nan;100265.78;5012808;28;19944;-77
2021/07/17 12:46:05;;;;;;;;;;;;;;;29.48;nan;100257.94;4995536;28;19987;-77
2021/07/17 12:48:33;;;;;;;;;;;;;;;29.27;nan;100251.69;4986657;28;19933;-77
2021/07/17 12:51:04;;;;;;;;;;;;;;;29.51;nan;100259.75;5009418;28;20303;-77
2021/07/17 12:53:32;;;;;;;;;;;;;;;29.25;nan;100260.06;5013282;28;19971;-77
2021/07/17 12:55:59;;;;;;;;;;;;;;;29.45;nan;100251.16;5011084;28;20343;-78
2021/07/17 12:58:27;;;;;;;;;;;;;;;29.49;nan;100257.41;4995552;28;19926;-77
2021/07/17 13:00:55;;;;;;;;;;;;;;;29.64;nan;100260.81;5012609;28;19925;-77
2021/07/17 13:03:22;;;;;;;;;;;;;;;29.49;nan;100256.66;5012885;28;20362;-78
2021/07/17 13:05:50;;;;;;;;;;;;;;;29.17;nan;100250.38;5012753;28;19936;-77
2021/07/17 13:08:24;;;;;;;;;;;;;;;29.21;nan;100248.03;5012699;28;20289;-77
2021/07/17 13:10:53;;;;;;;;;;;;;;;29.34;nan;100250.34;5011436;28;20247;-77